createdAt,value
2022-10-23T00:01:43.794Z,4.60
2022-10-23T00:04:15.087Z,3.28
2022-10-23T00:06:43.462Z,5.28
2022-10-23T00:09:13.319Z,4.62
2022-10-23T00:11:41.680Z,5.37
2022-10-23T00:14:09.334Z,4.68
2022-10-23T00:16:37.165Z,5.53
2022-10-23T00:19:04.959Z,3.33
2022-10-23T00:21:32.503Z,5.28
2022-10-23T00:24:00.337Z,3.60
2022-10-23T00:26:27.835Z,3.65
2022-10-23T00:28:56.211Z,4.47
2022-10-23T00:31:25.064Z,4.03
2022-10-23T00:33:53.345Z,5.57
2022-10-23T00:36:21.623Z,4.87
2022-10-23T00:38:51.292Z,7.18
2022-10-23T00:41:25.365Z,5.55
2022-10-23T00:44:06.367Z,9.68
2022-10-23T00:46:34.966Z,5.45
2022-10-23T00:49:04.576Z,7.90
2022-10-23T00:51:38.631Z,5.75
2022-10-23T00:54:24.446Z,5.62
2022-10-23T00:56:59.441Z,5.25
2022-10-23T00:59:27.836Z,5.80
2022-10-23T01:01:55.484Z,4.33
2022-10-23T01:04:23.988Z,4.47
2022-10-23T01:06:57.654Z,3.90
2022-10-23T01:09:46.485Z,8.80
2022-10-23T01:12:34.541Z,6.22
2022-10-23T01:15:21.884Z,6.30
2022-10-23T01:18:02.380Z,6.15
2022-10-23T01:20:46.774Z,7.53
2022-10-23T01:23:38.727Z,9.10
2022-10-23T01:26:29.917Z,11.35
2022-10-23T01:29:15.126Z,6.07
2022-10-23T01:31:55.573Z,6.53
2022-10-23T01:34:30.821Z,7.07
2022-10-23T01:37:01.478Z,5.85
2022-10-23T01:39:37.032Z,6.78
2022-10-23T01:42:11.909Z,5.67
2022-10-23T01:44:44.912Z,7.07
2022-10-23T01:47:16.131Z,17.35
2022-10-23T01:49:47.674Z,5.45
2022-10-23T01:52:16.600Z,5.05
2022-10-23T01:54:46.465Z,4.67
2022-10-23T01:57:18.051Z,7.47
2022-10-23T01:59:51.836Z,7.32
2022-10-23T02:02:22.789Z,6.30
2022-10-23T02:04:59.487Z,8.18
2022-10-23T02:07:27.156Z,7.93
2022-10-23T02:09:54.982Z,7.28
2022-10-23T02:12:56.111Z,8.90
2022-10-23T02:15:41.475Z,7.35
2022-10-23T02:18:44.664Z,6.37
2022-10-23T02:21:17.643Z,9.07
2022-10-23T02:24:07.976Z,6.80
2022-10-23T02:26:49.150Z,9.02
2022-10-23T02:29:33.677Z,7.90
2022-10-23T02:32:02.252Z,10.88
2022-10-23T02:34:29.980Z,7.33
2022-10-23T02:36:57.733Z,13.05
2022-10-23T02:39:27.922Z,22.92
2022-10-23T02:42:28.154Z,27.95
2022-10-23T02:45:29.863Z,37.13
2022-10-23T02:48:19.193Z,38.47
2022-10-23T02:51:00.351Z,61.30
2022-10-23T02:53:33.483Z,30.50
2022-10-23T02:56:03.702Z,56.53
2022-10-23T02:58:34.084Z,6.97
2022-10-23T03:01:24.881Z,11.17
2022-10-23T03:03:56.773Z,20.50
2022-10-23T03:06:25.306Z,23.95
2022-10-23T03:08:57.809Z,13.55
2022-10-23T03:11:25.829Z,29.67
2022-10-23T03:13:53.522Z,75.30
2022-10-23T03:16:20.980Z,50.58
2022-10-23T03:18:50.410Z,75.78
2022-10-23T03:21:18.236Z,32.33
2022-10-23T03:23:45.671Z,59.38
2022-10-23T03:26:15.015Z,75.60
2022-10-23T03:28:42.891Z,92.80
2022-10-23T03:31:10.383Z,92.00
2022-10-23T03:33:38.933Z,42.00
2022-10-23T03:36:07.365Z,72.82
2022-10-23T03:38:35.236Z,43.40
2022-10-23T03:41:03.014Z,46.05
2022-10-23T03:43:30.708Z,52.38
2022-10-23T03:45:58.101Z,45.03
2022-10-23T03:48:25.968Z,35.33
2022-10-23T03:50:57.814Z,41.77
2022-10-23T03:53:25.318Z,11.52
2022-10-23T03:55:53.431Z,30.48
2022-10-23T03:58:21.106Z,60.28
2022-10-23T04:00:49.416Z,87.45
2022-10-23T04:03:17.095Z,67.73
2022-10-23T04:05:44.484Z,65.47
2022-10-23T04:08:14.189Z,54.78
2022-10-23T04:10:45.256Z,48.10
2022-10-23T04:13:12.859Z,26.85
2022-10-23T04:15:40.354Z,14.77
2022-10-23T04:18:08.087Z,10.25
2022-10-23T04:20:36.067Z,11.85
2022-10-23T04:23:03.528Z,5.37
2022-10-23T04:25:34.403Z,11.12
2022-10-23T04:28:01.880Z,37.20
2022-10-23T04:30:32.849Z,18.08
2022-10-23T04:33:00.707Z,14.02
2022-10-23T04:35:29.519Z,7.20
2022-10-23T04:37:57.303Z,15.00
2022-10-23T04:40:24.711Z,12.13
2022-10-23T04:42:52.984Z,31.60
2022-10-23T04:45:21.051Z,39.70
2022-10-23T04:47:48.451Z,13.23
2022-10-23T04:50:16.205Z,13.90
2022-10-23T04:53:04.298Z,5.37
2022-10-23T04:55:32.236Z,9.30
2022-10-23T04:58:04.262Z,32.03
2022-10-23T05:00:32.614Z,23.02
2022-10-23T05:03:00.078Z,70.22
2022-10-23T05:05:30.994Z,115.23
2022-10-23T05:07:59.412Z,49.28
2022-10-23T05:10:27.135Z,43.67
2022-10-23T05:12:55.143Z,66.55
2022-10-23T05:15:22.612Z,64.40
2022-10-23T05:17:53.584Z,67.17
2022-10-23T05:20:25.230Z,37.50
2022-10-23T05:22:55.575Z,26.05
2022-10-23T05:25:24.749Z,66.43
2022-10-23T05:27:52.827Z,71.83
2022-10-23T05:30:20.285Z,93.82
2022-10-23T05:32:48.553Z,41.00
2022-10-23T05:35:21.714Z,19.10
2022-10-23T05:37:51.892Z,36.72
2022-10-23T05:40:19.797Z,58.33
2022-10-23T05:42:48.165Z,35.25
2022-10-23T05:45:17.522Z,50.83
2022-10-23T05:47:46.390Z,41.53
2022-10-23T05:50:15.962Z,66.30
2022-10-23T05:52:49.091Z,56.17
2022-10-23T05:55:17.630Z,51.55
2022-10-23T05:57:46.518Z,85.30
2022-10-23T06:00:14.937Z,90.20
2022-10-23T06:02:42.370Z,42.47
2022-10-23T06:05:11.213Z,55.37
2022-10-23T06:07:39.670Z,41.90
2022-10-23T06:10:07.477Z,83.43
2022-10-23T06:12:35.821Z,43.63
2022-10-23T06:15:04.072Z,63.55
2022-10-23T06:17:33.011Z,54.77
2022-10-23T06:20:03.527Z,81.12
2022-10-23T06:22:33.630Z,70.28
2022-10-23T06:25:02.679Z,38.50
2022-10-23T06:27:30.457Z,22.92
2022-10-23T06:29:57.907Z,91.57
2022-10-23T06:32:25.635Z,17.98
2022-10-23T06:34:54.842Z,176.55
2022-10-23T06:37:22.236Z,40.17
2022-10-23T06:39:50.169Z,25.58
2022-10-23T06:42:17.761Z,25.20
2022-10-23T06:44:48.457Z,21.08
2022-10-23T06:47:18.270Z,59.50
2022-10-23T06:49:47.215Z,77.00
2022-10-23T06:52:34.940Z,52.72
2022-10-23T06:55:04.434Z,23.80
2022-10-23T06:57:32.232Z,15.50
2022-10-23T06:59:59.633Z,44.22
2022-10-23T07:02:27.523Z,18.45
2022-10-23T07:04:55.229Z,10.90
2022-10-23T07:07:22.827Z,44.07
2022-10-23T07:09:50.598Z,41.05
2022-10-23T07:12:20.332Z,8.80
2022-10-23T07:14:48.860Z,13.95
2022-10-23T07:17:16.750Z,7.43
2022-10-23T07:19:48.295Z,12.63
2022-10-23T07:22:16.287Z,18.27
2022-10-23T07:24:44.376Z,54.50
2022-10-23T07:27:12.092Z,48.28
2022-10-23T07:29:39.853Z,71.97
2022-10-23T07:32:07.336Z,17.23
2022-10-23T07:34:37.264Z,47.25
2022-10-23T07:37:06.006Z,56.40
2022-10-23T07:39:33.442Z,43.85
2022-10-23T07:42:01.007Z,7.43
2022-10-23T07:44:28.818Z,39.23
2022-10-23T07:46:56.392Z,22.62
2022-10-23T07:49:23.807Z,7.68
2022-10-23T07:51:53.976Z,19.05
2022-10-23T07:54:21.454Z,18.77
2022-10-23T07:56:50.419Z,5.17
2022-10-23T07:59:19.466Z,8.32
2022-10-23T08:01:50.536Z,7.72
2022-10-23T08:04:20.992Z,9.93
2022-10-23T08:06:49.138Z,8.98
2022-10-23T08:09:16.823Z,10.27
2022-10-23T08:11:44.608Z,8.20
2022-10-23T08:14:14.322Z,14.45
2022-10-23T08:16:42.680Z,12.68
2022-10-23T08:19:12.180Z,4.75
2022-10-23T08:21:40.470Z,8.30
2022-10-23T08:24:13.299Z,11.27
2022-10-23T08:26:41.399Z,10.63
2022-10-23T08:29:09.747Z,7.65
2022-10-23T08:31:37.394Z,8.77
2022-10-23T08:34:07.108Z,5.13
2022-10-23T08:36:36.461Z,7.55
2022-10-23T08:39:04.375Z,6.53
2022-10-23T08:41:37.638Z,5.72
2022-10-23T08:44:20.387Z,9.35
2022-10-23T08:46:56.275Z,4.67
2022-10-23T08:49:49.793Z,5.47
2022-10-23T08:52:25.014Z,7.40
2022-10-23T08:55:22.800Z,7.22
2022-10-23T08:58:06.546Z,3.45
2022-10-23T09:00:34.622Z,5.00
2022-10-23T09:03:05.381Z,3.95
2022-10-23T09:05:37.118Z,4.10
2022-10-23T09:08:42.267Z,4.32
2022-10-23T09:11:30.716Z,4.45
2022-10-23T09:14:16.922Z,5.87
2022-10-23T09:16:50.174Z,5.22
2022-10-23T09:19:26.415Z,3.80
2022-10-23T09:21:55.690Z,4.40
2022-10-23T09:24:26.178Z,6.55
2022-10-23T09:26:54.369Z,4.23
2022-10-23T09:29:28.651Z,4.47
2022-10-23T09:31:58.538Z,6.40
2022-10-23T09:34:29.168Z,5.65
2022-10-23T09:37:03.859Z,6.55
2022-10-23T09:39:34.155Z,6.33
2022-10-23T09:42:13.946Z,6.12
2022-10-23T09:44:48.841Z,4.93
2022-10-23T09:47:20.756Z,13.50
2022-10-23T09:49:58.831Z,14.27
2022-10-23T09:52:35.924Z,11.43
2022-10-23T09:55:18.988Z,7.53
2022-10-23T09:57:47.611Z,5.05
2022-10-23T10:00:18.531Z,4.60
2022-10-23T10:02:55.587Z,4.90
2022-10-23T10:05:25.288Z,4.23
2022-10-23T10:08:15.095Z,4.25
2022-10-23T10:10:50.325Z,3.33
2022-10-23T10:13:37.784Z,4.93
2022-10-23T10:16:20.131Z,4.72
2022-10-23T10:18:56.386Z,6.20
2022-10-23T10:21:42.475Z,4.87
2022-10-23T10:24:24.140Z,4.28
2022-10-23T10:26:57.263Z,4.45
2022-10-23T10:29:43.521Z,5.37
2022-10-23T10:33:06.672Z,5.50
2022-10-23T10:35:37.592Z,5.35
2022-10-23T10:38:32.244Z,15.88
2022-10-23T10:41:14.361Z,4.95
2022-10-23T10:44:09.623Z,5.60
2022-10-23T10:46:51.175Z,5.97
2022-10-23T10:49:43.231Z,4.37
2022-10-23T10:52:33.716Z,4.60
2022-10-23T10:55:16.442Z,4.37
2022-10-23T10:57:50.383Z,4.22
2022-10-23T11:00:21.324Z,4.60
2022-10-23T11:02:54.138Z,4.80
2022-10-23T11:05:38.921Z,5.15
2022-10-23T11:08:18.189Z,4.70
2022-10-23T11:10:49.525Z,3.97
2022-10-23T11:13:35.308Z,4.93
2022-10-23T11:16:30.168Z,6.78
2022-10-23T11:19:35.611Z,5.80
2022-10-23T11:22:24.619Z,6.00
2022-10-23T11:25:29.879Z,5.80
2022-10-23T11:28:20.161Z,6.53
2022-10-23T11:31:10.938Z,5.20
2022-10-23T11:34:08.891Z,5.22
2022-10-23T11:36:42.972Z,5.37
2022-10-23T11:39:23.636Z,5.00
2022-10-23T11:41:56.463Z,6.47
2022-10-23T11:44:26.618Z,4.28
2022-10-23T11:47:39.549Z,5.78
2022-10-23T11:50:28.152Z,5.95
2022-10-23T11:53:13.760Z,5.87
2022-10-23T11:56:06.769Z,4.33
2022-10-23T12:01:44.326Z,4.50
2022-10-23T12:04:15.091Z,4.50
2022-10-23T12:06:47.621Z,4.25
2022-10-23T12:09:36.222Z,5.33
2022-10-23T12:12:09.540Z,6.53
2022-10-23T12:14:38.995Z,4.85
2022-10-23T12:17:24.984Z,4.40
2022-10-23T12:19:55.878Z,6.00
2022-10-23T12:22:30.863Z,4.17
2022-10-23T12:25:17.318Z,4.85
2022-10-23T12:27:57.246Z,4.78
2022-10-23T12:31:02.935Z,4.43
2022-10-23T12:33:56.199Z,4.47
2022-10-23T12:36:36.222Z,5.33
2022-10-23T12:39:03.694Z,5.25
2022-10-23T12:41:34.801Z,4.50
2022-10-23T12:44:04.939Z,4.85
2022-10-23T12:46:41.700Z,4.22
2022-10-23T12:49:15.661Z,4.57
2022-10-23T12:51:43.806Z,4.87
2022-10-23T12:54:21.639Z,5.65
2022-10-23T12:56:49.850Z,4.62
2022-10-23T12:59:23.342Z,5.43
2022-10-23T13:01:53.025Z,5.10
2022-10-23T13:04:31.272Z,4.40
2022-10-23T13:07:02.148Z,4.50
2022-10-23T13:09:42.264Z,7.47
2022-10-23T13:12:22.509Z,6.65
2022-10-23T13:15:06.945Z,8.80
2022-10-23T13:17:39.126Z,5.85
2022-10-23T13:20:18.789Z,6.68
2022-10-23T13:22:59.431Z,5.80
2022-10-23T13:25:33.480Z,6.43
2022-10-23T13:28:23.030Z,6.03
2022-10-23T13:31:22.528Z,5.07
2022-10-23T13:34:23.578Z,5.95
2022-10-23T13:37:01.187Z,6.53
2022-10-23T13:39:33.623Z,7.35
2022-10-23T13:42:11.841Z,8.63
2022-10-23T13:44:40.742Z,6.97
2022-10-23T13:47:16.028Z,6.15
2022-10-23T13:49:43.755Z,6.62
2022-10-23T13:52:23.547Z,8.63
2022-10-23T13:54:51.284Z,8.33
2022-10-23T13:57:18.709Z,9.07
2022-10-23T13:59:46.096Z,6.72
2022-10-23T14:02:24.357Z,6.80
2022-10-23T14:04:52.213Z,8.45
2022-10-23T14:07:19.661Z,8.00
2022-10-23T14:09:47.474Z,7.97
2022-10-23T14:12:16.871Z,7.82
2022-10-23T14:14:44.304Z,8.93
2022-10-23T14:17:11.785Z,10.15
2022-10-23T14:19:39.513Z,9.37
2022-10-23T14:22:07.080Z,7.80
2022-10-23T14:24:35.140Z,9.02
2022-10-23T14:27:03.383Z,8.85
2022-10-23T14:29:31.483Z,9.27
2022-10-23T14:31:59.143Z,7.73
2022-10-23T14:34:26.877Z,9.27
2022-10-23T14:37:07.983Z,8.93
2022-10-23T14:39:36.717Z,8.07
2022-10-23T14:42:04.325Z,7.95
2022-10-23T14:44:31.806Z,9.10
2022-10-23T14:47:00.143Z,9.45
2022-10-23T14:49:27.561Z,10.98
2022-10-23T14:51:54.973Z,12.13
2022-10-23T14:54:22.718Z,9.63
2022-10-23T14:56:50.074Z,10.20
2022-10-23T14:59:17.505Z,11.35
2022-10-23T15:01:48.218Z,11.27
2022-10-23T15:04:16.545Z,10.35
2022-10-23T15:06:45.120Z,10.48
2022-10-23T15:09:13.694Z,10.30
2022-10-23T15:11:41.434Z,11.18
2022-10-23T15:14:09.032Z,11.00
2022-10-23T15:16:41.469Z,9.77
2022-10-23T15:19:18.106Z,10.68
2022-10-23T15:21:47.990Z,11.93
2022-10-23T15:24:16.858Z,10.13
2022-10-23T15:26:45.540Z,10.43
2022-10-23T15:29:14.875Z,11.18
2022-10-23T15:31:45.353Z,11.55
2022-10-23T15:34:19.546Z,10.20
2022-10-23T15:36:47.938Z,14.32
2022-10-23T15:39:18.532Z,13.43
2022-10-23T15:41:46.135Z,11.80
2022-10-23T15:44:17.331Z,11.23
2022-10-23T15:46:45.198Z,10.60
2022-10-23T15:49:13.195Z,11.63
2022-10-23T15:51:42.062Z,11.65
2022-10-23T15:54:16.613Z,11.27
2022-10-23T15:56:48.021Z,12.02
2022-10-23T15:59:17.059Z,11.73
2022-10-23T16:01:44.638Z,10.80
2022-10-23T16:04:13.080Z,10.80
2022-10-23T16:06:40.608Z,10.60
2022-10-23T16:09:08.265Z,9.75
2022-10-23T16:11:37.724Z,12.63
2022-10-23T16:14:06.125Z,9.90
2022-10-23T16:16:34.225Z,12.02
2022-10-23T16:19:03.788Z,11.95
2022-10-23T16:21:36.243Z,12.10
2022-10-23T16:24:07.769Z,12.43
2022-10-23T16:26:36.127Z,12.63
2022-10-23T16:29:06.384Z,12.25
2022-10-23T16:31:34.462Z,11.98
2022-10-23T16:34:05.144Z,11.15
2022-10-23T16:36:39.412Z,12.23
2022-10-23T16:39:10.202Z,10.73
2022-10-23T16:41:51.174Z,10.88
2022-10-23T16:44:18.661Z,10.45
2022-10-23T16:46:47.982Z,12.15
2022-10-23T16:49:15.456Z,11.50
2022-10-23T16:51:42.865Z,12.70
2022-10-23T16:54:10.746Z,11.07
2022-10-23T16:56:38.308Z,11.23
2022-10-23T16:59:05.763Z,9.43
2022-10-23T17:01:34.078Z,12.47
2022-10-23T17:04:01.671Z,13.07
2022-10-23T17:06:32.529Z,12.13
2022-10-23T17:09:01.377Z,11.73
2022-10-23T17:11:33.871Z,14.57
2022-10-23T17:14:04.595Z,11.37
2022-10-23T17:16:44.602Z,13.55
2022-10-23T17:19:20.711Z,14.38
2022-10-23T17:21:48.479Z,14.25
2022-10-23T17:24:16.634Z,13.10
2022-10-23T17:26:44.046Z,13.80
2022-10-23T17:29:15.092Z,18.58
2022-10-23T17:31:45.667Z,16.67
2022-10-23T17:34:18.307Z,18.08
2022-10-23T17:36:49.411Z,18.33
2022-10-23T17:39:20.806Z,16.97
2022-10-23T17:41:48.659Z,16.52
2022-10-23T17:44:17.755Z,16.62
2022-10-23T17:46:53.013Z,17.83
2022-10-23T17:49:21.456Z,16.40
2022-10-23T17:51:52.568Z,17.73
2022-10-23T17:54:20.596Z,16.25
2022-10-23T17:56:48.367Z,17.37
2022-10-23T17:59:18.868Z,20.02
2022-10-23T18:01:48.228Z,14.15
2022-10-23T18:04:19.453Z,15.67
2022-10-23T18:06:49.962Z,16.70
2022-10-23T18:09:18.704Z,13.75
2022-10-23T18:11:48.217Z,14.50
2022-10-23T18:14:18.551Z,17.08
2022-10-23T18:16:46.799Z,17.63
2022-10-23T18:19:17.224Z,15.68
2022-10-23T18:21:45.026Z,15.43
2022-10-23T18:24:12.797Z,14.87
2022-10-23T18:26:41.729Z,14.70
2022-10-23T18:29:10.772Z,14.30
2022-10-23T18:31:38.888Z,16.70
2022-10-23T18:34:08.884Z,17.92
2022-10-23T18:36:39.312Z,15.02
2022-10-23T18:39:09.560Z,12.98
2022-10-23T18:41:40.056Z,18.63
2022-10-23T18:44:08.473Z,18.05
2022-10-23T18:46:37.277Z,17.20
2022-10-23T18:49:04.896Z,15.25
2022-10-23T18:51:34.999Z,15.45
2022-10-23T18:54:14.058Z,14.87
2022-10-23T18:56:42.257Z,14.55
2022-10-23T18:59:15.633Z,14.50
2022-10-23T19:01:44.254Z,13.65
2022-10-23T19:04:14.120Z,15.68
2022-10-23T19:06:41.650Z,13.10
2022-10-23T19:09:10.462Z,13.57
2022-10-23T19:11:38.255Z,14.80
2022-10-23T19:14:05.773Z,16.27
2022-10-23T19:16:38.519Z,14.85
2022-10-23T19:19:17.810Z,13.40
2022-10-23T19:21:46.342Z,15.20
2022-10-23T19:24:18.333Z,15.80
2022-10-23T19:26:46.856Z,17.10
2022-10-23T19:29:20.071Z,14.70
2022-10-23T19:31:49.336Z,17.60
2022-10-23T19:34:19.995Z,18.40
2022-10-23T19:36:48.959Z,14.93
2022-10-23T19:39:16.968Z,15.55
2022-10-23T19:41:44.768Z,13.52
2022-10-23T19:44:14.730Z,15.60
2022-10-23T19:46:42.287Z,14.02
2022-10-23T19:49:10.264Z,18.37
2022-10-23T19:51:38.495Z,21.73
2022-10-23T19:54:06.806Z,17.80
2022-10-23T19:56:35.804Z,16.80
2022-10-23T19:59:03.707Z,16.37
2022-10-23T20:01:31.292Z,18.58
2022-10-23T20:03:59.186Z,14.40
2022-10-23T20:06:29.864Z,15.77
2022-10-23T20:08:57.436Z,15.30
2022-10-23T20:11:30.736Z,16.45
2022-10-23T20:13:58.456Z,17.17
2022-10-23T20:16:31.686Z,20.02
2022-10-23T20:19:02.721Z,17.50
2022-10-23T20:21:30.481Z,24.07
2022-10-23T20:23:59.219Z,23.30
2022-10-23T20:26:26.939Z,22.08
2022-10-23T20:28:55.997Z,17.67
2022-10-23T20:31:25.583Z,15.88
2022-10-23T20:33:53.646Z,15.10
2022-10-23T20:36:36.619Z,15.88
2022-10-23T20:39:09.916Z,15.65
2022-10-23T20:41:38.502Z,15.80
2022-10-23T20:44:09.518Z,16.95
2022-10-23T20:46:37.169Z,18.53
2022-10-23T20:49:04.928Z,17.48
2022-10-23T20:51:32.755Z,17.75
2022-10-23T20:54:00.242Z,15.80
2022-10-23T20:56:31.188Z,17.15
2022-10-23T20:59:07.458Z,16.07
2022-10-23T21:01:35.839Z,15.10
2022-10-23T21:04:03.651Z,16.52
2022-10-23T21:06:45.618Z,15.18
2022-10-23T21:09:21.835Z,15.07
2022-10-23T21:11:49.874Z,18.47
2022-10-23T21:14:17.262Z,19.87
2022-10-23T21:16:46.567Z,18.48
2022-10-23T21:19:15.848Z,14.13
2022-10-23T21:21:43.987Z,16.00
2022-10-23T21:24:16.127Z,14.47
2022-10-23T21:26:44.055Z,16.02
2022-10-23T21:29:18.976Z,14.10
2022-10-23T21:31:56.022Z,16.65
2022-10-23T21:34:25.356Z,12.90
2022-10-23T21:39:44.713Z,14.82
2022-10-23T21:42:13.796Z,16.77
2022-10-23T21:44:41.498Z,14.85
2022-10-23T21:47:09.215Z,16.25
2022-10-23T21:49:36.919Z,14.57
2022-10-23T21:52:04.991Z,32.92
2022-10-23T21:54:32.553Z,12.73
2022-10-23T21:56:59.986Z,14.18
2022-10-23T21:59:30.190Z,13.95
2022-10-23T22:01:59.582Z,23.30
2022-10-23T22:04:27.479Z,18.87
2022-10-23T22:06:55.034Z,13.60
2022-10-23T22:09:22.807Z,13.98
2022-10-23T22:11:52.166Z,14.10
2022-10-23T22:14:20.003Z,16.73
2022-10-23T22:16:48.062Z,15.68
2022-10-23T22:19:17.595Z,16.23
2022-10-23T22:21:45.740Z,20.88
2022-10-23T22:24:13.483Z,15.20
2022-10-23T22:26:47.511Z,17.10
2022-10-23T22:29:18.409Z,14.93
2022-10-23T22:31:48.882Z,13.10
2022-10-23T22:34:52.397Z,16.73
2022-10-23T22:37:21.028Z,14.38
2022-10-23T22:39:52.359Z,17.20
2022-10-23T22:42:20.607Z,15.70
2022-10-23T22:44:48.295Z,18.37
2022-10-23T22:47:15.666Z,15.88
2022-10-23T22:49:43.058Z,16.10
2022-10-23T22:52:10.728Z,19.13
2022-10-23T22:54:38.115Z,16.35
2022-10-23T22:57:05.563Z,16.15
2022-10-23T22:59:33.263Z,17.48
2022-10-23T23:02:00.763Z,13.95
2022-10-23T23:04:43.542Z,16.53
2022-10-23T23:07:12.723Z,15.40
2022-10-23T23:09:42.890Z,18.73
2022-10-23T23:12:13.470Z,16.77
2022-10-23T23:14:41.460Z,19.12
2022-10-23T23:17:09.836Z,16.80
2022-10-23T23:19:37.607Z,15.93
2022-10-23T23:22:05.350Z,13.50
2022-10-23T23:24:33.131Z,18.98
2022-10-23T23:27:00.839Z,13.62
2022-10-23T23:29:29.584Z,15.93
2022-10-23T23:31:57.335Z,15.65
2022-10-23T23:34:25.037Z,11.75
2022-10-23T23:36:52.461Z,14.80
2022-10-23T23:39:19.866Z,14.57
2022-10-23T23:41:47.548Z,11.50
2022-10-23T23:44:14.982Z,13.95
2022-10-23T23:46:42.383Z,14.73
2022-10-23T23:49:10.085Z,16.27
2022-10-23T23:51:37.568Z,14.63
2022-10-23T23:54:05.005Z,13.07
2022-10-23T23:56:32.722Z,16.25
2022-10-23T23:59:00.111Z,14.27
